sensor_id;sensor_type;location;lat;lon;timestamp;P1;durP1;ratioP1;P2;durP2;ratioP2
27744;SDS011;61387;48.112;8.616;2022-10-22T00:01:48;1.63;;;0.33;;
27744;SDS011;61387;48.112;8.616;2022-10-22T00:04:14;2.50;;;0.70;;
27744;SDS011;61387;48.112;8.616;2022-10-22T00:06:40;1.07;;;0.60;;
27744;SDS011;61387;48.112;8.616;2022-10-22T00:09:09;6.50;;;0.93;;
27744;SDS011;61387;48.112;8.616;2022-10-22T00:11:35;3.23;;;0.67;;
27744;SDS011;61387;48.112;8.616;2022-10-22T00:14:01;3.10;;;0.60;;
27744;SDS011;61387;48.112;8.616;2022-10-22T00:16:27;0.77;;;0.70;;
27744;SDS011;61387;48.112;8.616;2022-10-22T00:18:53;2.17;;;0.80;;
27744;SDS011;61387;48.112;8.616;2022-10-22T00:21:18;2.60;;;0.80;;
27744;SDS011;61387;48.112;8.616;2022-10-22T00:23:44;2.40;;;0.93;;
27744;SDS011;61387;48.112;8.616;2022-10-22T00:26:11;2.47;;;1.17;;
27744;SDS011;61387;48.112;8.616;2022-10-22T00:28:37;1.70;;;1.10;;
27744;SDS011;61387;48.112;8.616;2022-10-22T00:31:03;3.37;;;0.97;;
27744;SDS011;61387;48.112;8.616;2022-10-22T00:33:29;4.13;;;1.10;;
27744;SDS011;61387;48.112;8.616;2022-10-22T00:35:56;4.97;;;1.30;;
27744;SDS011;61387;48.112;8.616;2022-10-22T00:38:21;2.70;;;1.00;;
27744;SDS011;61387;48.112;8.616;2022-10-22T00:40:48;3.47;;;1.37;;
27744;SDS011;61387;48.112;8.616;2022-10-22T00:43:15;3.27;;;1.70;;
27744;SDS011;61387;48.112;8.616;2022-10-22T00:45:42;4.37;;;1.40;;
27744;SDS011;61387;48.112;8.616;2022-10-22T00:48:09;3.67;;;1.10;;
27744;SDS011;61387;48.112;8.616;2022-10-22T00:53:23;1.67;;;0.97;;
27744;SDS011;61387;48.112;8.616;2022-10-22T00:55:58;4.20;;;1.00;;
27744;SDS011;61387;48.112;8.616;2022-10-22T00:58:25;2.43;;;1.07;;
27744;SDS011;61387;48.112;8.616;2022-10-22T01:00:53;4.40;;;1.10;;
27744;SDS011;61387;48.112;8.616;2022-10-22T01:03:19;5.20;;;1.27;;
27744;SDS011;61387;48.112;8.616;2022-10-22T01:05:46;3.40;;;1.03;;
27744;SDS011;61387;48.112;8.616;2022-10-22T01:08:25;3.87;;;1.40;;
27744;SDS011;61387;48.112;8.616;2022-10-22T01:11:12;4.83;;;1.33;;
27744;SDS011;61387;48.112;8.616;2022-10-22T01:16:14;4.87;;;1.30;;
27744;SDS011;61387;48.112;8.616;2022-10-22T01:21:38;2.57;;;1.40;;
27744;SDS011;61387;48.112;8.616;2022-10-22T01:26:36;4.87;;;1.50;;
27744;SDS011;61387;48.112;8.616;2022-10-22T01:29:16;5.30;;;1.27;;
27744;SDS011;61387;48.112;8.616;2022-10-22T01:31:48;3.50;;;1.27;;
27744;SDS011;61387;48.112;8.616;2022-10-22T01:34:23;2.40;;;1.30;;
27744;SDS011;61387;48.112;8.616;2022-10-22T01:36:49;1.07;;;0.97;;
27744;SDS011;61387;48.112;8.616;2022-10-22T01:39:16;1.93;;;1.10;;
27744;SDS011;61387;48.112;8.616;2022-10-22T01:41:43;1.80;;;1.00;;
27744;SDS011;61387;48.112;8.616;2022-10-22T01:44:22;3.10;;;1.20;;
27744;SDS011;61387;48.112;8.616;2022-10-22T01:49:45;5.00;;;1.37;;
27744;SDS011;61387;48.112;8.616;2022-10-22T01:52:26;3.53;;;1.20;;
27744;SDS011;61387;48.112;8.616;2022-10-22T01:58:31;2.43;;;1.00;;
27744;SDS011;61387;48.112;8.616;2022-10-22T02:01:34;3.07;;;1.00;;
27744;SDS011;61387;48.112;8.616;2022-10-22T02:06:53;2.23;;;1.13;;
27744;SDS011;61387;48.112;8.616;2022-10-22T02:09:23;2.97;;;1.20;;
27744;SDS011;61387;48.112;8.616;2022-10-22T02:11:51;3.97;;;1.07;;
27744;SDS011;61387;48.112;8.616;2022-10-22T02:14:18;2.50;;;0.90;;
27744;SDS011;61387;48.112;8.616;2022-10-22T02:16:47;3.10;;;1.10;;
27744;SDS011;61387;48.112;8.616;2022-10-22T02:19:16;2.53;;;1.10;;
27744;SDS011;61387;48.112;8.616;2022-10-22T02:21:50;1.20;;;0.80;;
27744;SDS011;61387;48.112;8.616;2022-10-22T02:24:16;0.97;;;0.80;;
27744;SDS011;61387;48.112;8.616;2022-10-22T02:26:48;2.77;;;1.20;;
27744;SDS011;61387;48.112;8.616;2022-10-22T02:29:20;1.63;;;1.03;;
27744;SDS011;61387;48.112;8.616;2022-10-22T02:31:51;6.83;;;1.30;;
27744;SDS011;61387;48.112;8.616;2022-10-22T02:34:21;2.60;;;1.30;;
27744;SDS011;61387;48.112;8.616;2022-10-22T02:36:51;3.43;;;1.50;;
27744;SDS011;61387;48.112;8.616;2022-10-22T02:39:19;3.67;;;1.30;;
27744;SDS011;61387;48.112;8.616;2022-10-22T02:41:45;4.13;;;1.40;;
27744;SDS011;61387;48.112;8.616;2022-10-22T02:44:11;2.37;;;1.43;;
27744;SDS011;61387;48.112;8.616;2022-10-22T02:46:38;2.27;;;1.17;;
27744;SDS011;61387;48.112;8.616;2022-10-22T02:49:04;2.20;;;1.17;;
27744;SDS011;61387;48.112;8.616;2022-10-22T02:51:30;2.40;;;1.30;;
27744;SDS011;61387;48.112;8.616;2022-10-22T02:53:56;3.80;;;1.53;;
27744;SDS011;61387;48.112;8.616;2022-10-22T02:56:22;1.57;;;0.90;;
27744;SDS011;61387;48.112;8.616;2022-10-22T02:58:48;3.87;;;0.90;;
27744;SDS011;61387;48.112;8.616;2022-10-22T03:01:13;0.90;;;0.80;;
27744;SDS011;61387;48.112;8.616;2022-10-22T03:03:39;2.10;;;0.67;;
27744;SDS011;61387;48.112;8.616;2022-10-22T03:06:05;1.10;;;0.47;;
27744;SDS011;61387;48.112;8.616;2022-10-22T03:08:31;1.30;;;0.60;;
27744;SDS011;61387;48.112;8.616;2022-10-22T03:10:57;4.20;;;0.80;;
27744;SDS011;61387;48.112;8.616;2022-10-22T03:13:23;2.33;;;0.80;;
27744;SDS011;61387;48.112;8.616;2022-10-22T03:15:49;0.40;;;0.40;;
27744;SDS011;61387;48.112;8.616;2022-10-22T03:18:15;4.30;;;0.70;;
27744;SDS011;61387;48.112;8.616;2022-10-22T03:20:41;1.33;;;0.60;;
27744;SDS011;61387;48.112;8.616;2022-10-22T03:23:08;2.87;;;0.70;;
27744;SDS011;61387;48.112;8.616;2022-10-22T03:25:34;0.60;;;0.50;;
27744;SDS011;61387;48.112;8.616;2022-10-22T03:28:02;2.30;;;0.53;;
27744;SDS011;61387;48.112;8.616;2022-10-22T03:30:31;2.07;;;0.50;;
27744;SDS011;61387;48.112;8.616;2022-10-22T03:32:57;0.90;;;0.60;;
27744;SDS011;61387;48.112;8.616;2022-10-22T03:35:23;2.17;;;0.70;;
27744;SDS011;61387;48.112;8.616;2022-10-22T03:37:49;0.67;;;0.40;;
27744;SDS011;61387;48.112;8.616;2022-10-22T03:40:15;1.17;;;0.43;;
27744;SDS011;61387;48.112;8.616;2022-10-22T03:42:41;0.57;;;0.40;;
27744;SDS011;61387;48.112;8.616;2022-10-22T03:45:08;1.80;;;0.30;;
27744;SDS011;61387;48.112;8.616;2022-10-22T03:47:34;0.83;;;0.27;;
27744;SDS011;61387;48.112;8.616;2022-10-22T03:50:01;0.30;;;0.30;;
27744;SDS011;61387;48.112;8.616;2022-10-22T03:52:27;1.53;;;0.47;;
27744;SDS011;61387;48.112;8.616;2022-10-22T03:54:53;0.30;;;0.30;;
27744;SDS011;61387;48.112;8.616;2022-10-22T03:57:19;1.93;;;0.30;;
27744;SDS011;61387;48.112;8.616;2022-10-22T03:59:45;0.83;;;0.50;;
27744;SDS011;61387;48.112;8.616;2022-10-22T04:02:11;0.80;;;0.60;;
27744;SDS011;61387;48.112;8.616;2022-10-22T04:04:38;2.93;;;0.40;;
27744;SDS011;61387;48.112;8.616;2022-10-22T04:07:05;1.50;;;0.50;;
27744;SDS011;61387;48.112;8.616;2022-10-22T04:09:31;0.20;;;0.20;;
27744;SDS011;61387;48.112;8.616;2022-10-22T04:11:58;1.73;;;0.33;;
27744;SDS011;61387;48.112;8.616;2022-10-22T04:14:24;1.60;;;0.70;;
27744;SDS011;61387;48.112;8.616;2022-10-22T04:16:50;1.23;;;0.70;;
27744;SDS011;61387;48.112;8.616;2022-10-22T04:19:16;1.77;;;1.67;;
27744;SDS011;61387;48.112;8.616;2022-10-22T04:21:42;2.40;;;1.13;;
27744;SDS011;61387;48.112;8.616;2022-10-22T04:24:08;1.97;;;0.60;;
27744;SDS011;61387;48.112;8.616;2022-10-22T04:26:34;1.20;;;1.20;;
27744;SDS011;61387;48.112;8.616;2022-10-22T04:29:00;1.37;;;0.97;;
27744;SDS011;61387;48.112;8.616;2022-10-22T04:31:26;2.03;;;1.90;;
27744;SDS011;61387;48.112;8.616;2022-10-22T04:33:53;2.00;;;1.90;;
27744;SDS011;61387;48.112;8.616;2022-10-22T04:36:20;2.40;;;2.20;;
27744;SDS011;61387;48.112;8.616;2022-10-22T04:38:46;3.07;;;1.47;;
27744;SDS011;61387;48.112;8.616;2022-10-22T04:41:16;1.73;;;1.13;;
27744;SDS011;61387;48.112;8.616;2022-10-22T04:43:43;1.80;;;1.47;;
27744;SDS011;61387;48.112;8.616;2022-10-22T04:46:10;1.00;;;0.53;;
27744;SDS011;61387;48.112;8.616;2022-10-22T04:48:37;3.03;;;0.60;;
27744;SDS011;61387;48.112;8.616;2022-10-22T04:51:05;1.87;;;0.70;;
27744;SDS011;61387;48.112;8.616;2022-10-22T04:53:32;0.67;;;0.50;;
27744;SDS011;61387;48.112;8.616;2022-10-22T04:56:06;2.10;;;0.80;;
27744;SDS011;61387;48.112;8.616;2022-10-22T04:58:33;2.17;;;1.10;;
27744;SDS011;61387;48.112;8.616;2022-10-22T05:00:59;1.00;;;0.60;;
27744;SDS011;61387;48.112;8.616;2022-10-22T05:03:25;1.90;;;0.93;;
27744;SDS011;61387;48.112;8.616;2022-10-22T05:05:51;1.40;;;0.90;;
27744;SDS011;61387;48.112;8.616;2022-10-22T05:08:17;1.00;;;0.90;;
27744;SDS011;61387;48.112;8.616;2022-10-22T05:10:43;2.13;;;0.60;;
27744;SDS011;61387;48.112;8.616;2022-10-22T05:13:09;0.90;;;0.80;;
27744;SDS011;61387;48.112;8.616;2022-10-22T05:15:35;1.73;;;0.80;;
27744;SDS011;61387;48.112;8.616;2022-10-22T05:18:01;1.63;;;0.87;;
27744;SDS011;61387;48.112;8.616;2022-10-22T05:20:27;2.37;;;0.97;;
27744;SDS011;61387;48.112;8.616;2022-10-22T05:22:53;0.90;;;0.50;;
27744;SDS011;61387;48.112;8.616;2022-10-22T05:25:19;3.37;;;1.20;;
27744;SDS011;61387;48.112;8.616;2022-10-22T05:27:47;2.80;;;1.23;;
27744;SDS011;61387;48.112;8.616;2022-10-22T05:30:14;1.70;;;1.10;;
27744;SDS011;61387;48.112;8.616;2022-10-22T05:32:40;1.27;;;0.97;;
27744;SDS011;61387;48.112;8.616;2022-10-22T05:35:06;2.40;;;1.60;;
27744;SDS011;61387;48.112;8.616;2022-10-22T05:37:32;3.30;;;1.60;;
27744;SDS011;61387;48.112;8.616;2022-10-22T05:39:58;2.37;;;1.83;;
27744;SDS011;61387;48.112;8.616;2022-10-22T05:42:24;3.73;;;2.13;;
27744;SDS011;61387;48.112;8.616;2022-10-22T05:44:50;2.97;;;1.73;;
27744;SDS011;61387;48.112;8.616;2022-10-22T05:47:15;3.87;;;1.87;;
27744;SDS011;61387;48.112;8.616;2022-10-22T05:49:41;7.47;;;4.70;;
27744;SDS011;61387;48.112;8.616;2022-10-22T05:52:07;6.17;;;3.63;;
27744;SDS011;61387;48.112;8.616;2022-10-22T05:54:33;4.13;;;2.30;;
27744;SDS011;61387;48.112;8.616;2022-10-22T05:56:59;4.17;;;1.97;;
27744;SDS011;61387;48.112;8.616;2022-10-22T05:59:25;5.07;;;2.70;;
27744;SDS011;61387;48.112;8.616;2022-10-22T06:01:51;5.00;;;2.70;;
27744;SDS011;61387;48.112;8.616;2022-10-22T06:04:17;10.30;;;2.93;;
27744;SDS011;61387;48.112;8.616;2022-10-22T06:06:44;6.50;;;3.07;;
27744;SDS011;61387;48.112;8.616;2022-10-22T06:09:17;5.73;;;2.80;;
27744;SDS011;61387;48.112;8.616;2022-10-22T06:11:46;4.97;;;3.07;;
27744;SDS011;61387;48.112;8.616;2022-10-22T06:14:12;4.97;;;3.20;;
27744;SDS011;61387;48.112;8.616;2022-10-22T06:16:38;6.50;;;3.30;;
27744;SDS011;61387;48.112;8.616;2022-10-22T06:19:05;8.77;;;4.10;;
27744;SDS011;61387;48.112;8.616;2022-10-22T06:21:35;5.67;;;3.77;;
27744;SDS011;61387;48.112;8.616;2022-10-22T06:24:01;5.87;;;3.60;;
27744;SDS011;61387;48.112;8.616;2022-10-22T06:26:27;6.13;;;3.90;;
27744;SDS011;61387;48.112;8.616;2022-10-22T06:28:53;7.97;;;3.90;;
27744;SDS011;61387;48.112;8.616;2022-10-22T06:31:21;6.17;;;4.50;;
27744;SDS011;61387;48.112;8.616;2022-10-22T06:33:48;6.70;;;4.30;;
27744;SDS011;61387;48.112;8.616;2022-10-22T06:36:16;10.87;;;5.03;;
27744;SDS011;61387;48.112;8.616;2022-10-22T06:38:43;7.90;;;5.10;;
27744;SDS011;61387;48.112;8.616;2022-10-22T06:41:10;9.07;;;5.30;;
27744;SDS011;61387;48.112;8.616;2022-10-22T06:43:37;9.87;;;5.73;;
27744;SDS011;61387;48.112;8.616;2022-10-22T06:46:04;10.37;;;6.30;;
27744;SDS011;61387;48.112;8.616;2022-10-22T06:48:47;8.67;;;5.73;;
27744;SDS011;61387;48.112;8.616;2022-10-22T06:51:13;11.10;;;5.93;;
27744;SDS011;61387;48.112;8.616;2022-10-22T06:53:39;10.17;;;5.87;;
27744;SDS011;61387;48.112;8.616;2022-10-22T06:56:10;8.97;;;5.33;;
27744;SDS011;61387;48.112;8.616;2022-10-22T06:58:37;10.50;;;5.53;;
27744;SDS011;61387;48.112;8.616;2022-10-22T07:01:05;11.97;;;6.80;;
27744;SDS011;61387;48.112;8.616;2022-10-22T07:03:32;13.83;;;6.73;;
27744;SDS011;61387;48.112;8.616;2022-10-22T07:05:59;9.27;;;6.60;;
27744;SDS011;61387;48.112;8.616;2022-10-22T07:08:26;11.00;;;6.77;;
27744;SDS011;61387;48.112;8.616;2022-10-22T07:10:52;8.13;;;5.30;;
27744;SDS011;61387;48.112;8.616;2022-10-22T07:13:18;11.20;;;6.03;;
27744;SDS011;61387;48.112;8.616;2022-10-22T07:15:44;10.27;;;6.30;;
27744;SDS011;61387;48.112;8.616;2022-10-22T07:18:10;14.73;;;9.13;;
27744;SDS011;61387;48.112;8.616;2022-10-22T07:20:35;15.53;;;8.40;;
27744;SDS011;61387;48.112;8.616;2022-10-22T07:23:01;11.53;;;8.63;;
27744;SDS011;61387;48.112;8.616;2022-10-22T07:25:27;8.57;;;6.27;;
27744;SDS011;61387;48.112;8.616;2022-10-22T07:27:53;9.53;;;6.43;;
27744;SDS011;61387;48.112;8.616;2022-10-22T07:30:19;10.27;;;6.27;;
27744;SDS011;61387;48.112;8.616;2022-10-22T07:32:45;11.83;;;6.20;;
27744;SDS011;61387;48.112;8.616;2022-10-22T07:35:11;10.23;;;6.87;;
27744;SDS011;61387;48.112;8.616;2022-10-22T07:37:37;10.00;;;6.13;;
27744;SDS011;61387;48.112;8.616;2022-10-22T07:40:03;10.93;;;6.87;;
27744;SDS011;61387;48.112;8.616;2022-10-22T07:42:29;10.00;;;6.20;;
27744;SDS011;61387;48.112;8.616;2022-10-22T07:44:55;11.00;;;7.07;;
27744;SDS011;61387;48.112;8.616;2022-10-22T07:47:21;9.33;;;6.27;;
27744;SDS011;61387;48.112;8.616;2022-10-22T07:49:47;10.07;;;5.90;;
27744;SDS011;61387;48.112;8.616;2022-10-22T07:52:13;8.80;;;5.97;;
27744;SDS011;61387;48.112;8.616;2022-10-22T07:54:38;8.87;;;5.83;;
27744;SDS011;61387;48.112;8.616;2022-10-22T07:57:04;11.23;;;5.50;;
27744;SDS011;61387;48.112;8.616;2022-10-22T07:59:30;9.27;;;5.73;;
27744;SDS011;61387;48.112;8.616;2022-10-22T08:01:56;9.83;;;5.40;;
27744;SDS011;61387;48.112;8.616;2022-10-22T08:04:22;7.40;;;4.93;;
27744;SDS011;61387;48.112;8.616;2022-10-22T08:06:48;9.03;;;5.27;;
27744;SDS011;61387;48.112;8.616;2022-10-22T08:09:14;9.67;;;5.20;;
27744;SDS011;61387;48.112;8.616;2022-10-22T08:11:40;7.80;;;4.00;;
27744;SDS011;61387;48.112;8.616;2022-10-22T08:14:06;7.27;;;4.43;;
27744;SDS011;61387;48.112;8.616;2022-10-22T08:16:32;6.70;;;3.80;;
27744;SDS011;61387;48.112;8.616;2022-10-22T08:18:57;6.40;;;3.73;;
27744;SDS011;61387;48.112;8.616;2022-10-22T08:21:23;13.80;;;9.13;;
27744;SDS011;61387;48.112;8.616;2022-10-22T08:23:49;8.97;;;4.70;;
27744;SDS011;61387;48.112;8.616;2022-10-22T08:26:15;6.77;;;4.27;;
27744;SDS011;61387;48.112;8.616;2022-10-22T08:28:42;7.67;;;4.10;;
27744;SDS011;61387;48.112;8.616;2022-10-22T08:31:08;6.10;;;3.53;;
27744;SDS011;61387;48.112;8.616;2022-10-22T08:33:34;7.50;;;3.40;;
27744;SDS011;61387;48.112;8.616;2022-10-22T08:36:00;8.73;;;4.50;;
27744;SDS011;61387;48.112;8.616;2022-10-22T08:38:26;5.37;;;3.03;;
27744;SDS011;61387;48.112;8.616;2022-10-22T08:40:53;6.80;;;4.10;;
27744;SDS011;61387;48.112;8.616;2022-10-22T08:43:34;10.27;;;7.57;;
27744;SDS011;61387;48.112;8.616;2022-10-22T08:49:11;6.73;;;3.27;;
27744;SDS011;61387;48.112;8.616;2022-10-22T08:51:44;4.57;;;3.00;;
27744;SDS011;61387;48.112;8.616;2022-10-22T08:54:27;5.27;;;2.87;;
27744;SDS011;61387;48.112;8.616;2022-10-22T08:59:39;7.70;;;3.90;;
27744;SDS011;61387;48.112;8.616;2022-10-22T09:02:58;5.60;;;3.30;;
27744;SDS011;61387;48.112;8.616;2022-10-22T09:05:15;5.93;;;2.40;;
27744;SDS011;61387;48.112;8.616;2022-10-22T09:07:56;3.93;;;2.63;;
27744;SDS011;61387;48.112;8.616;2022-10-22T09:10:28;4.60;;;2.60;;
27744;SDS011;61387;48.112;8.616;2022-10-22T09:12:57;2.97;;;1.97;;
27744;SDS011;61387;48.112;8.616;2022-10-22T09:15:23;6.20;;;2.70;;
27744;SDS011;61387;48.112;8.616;2022-10-22T09:20:42;3.17;;;2.30;;
27744;SDS011;61387;48.112;8.616;2022-10-22T09:23:18;3.07;;;2.20;;
27744;SDS011;61387;48.112;8.616;2022-10-22T09:26:07;7.37;;;3.07;;
27744;SDS011;61387;48.112;8.616;2022-10-22T09:28:37;5.17;;;2.40;;
27744;SDS011;61387;48.112;8.616;2022-10-22T09:31:08;3.73;;;2.67;;
27744;SDS011;61387;48.112;8.616;2022-10-22T09:33:35;2.77;;;1.83;;
27744;SDS011;61387;48.112;8.616;2022-10-22T09:36:01;5.90;;;2.27;;
27744;SDS011;61387;48.112;8.616;2022-10-22T09:38:30;5.27;;;2.20;;
27744;SDS011;61387;48.112;8.616;2022-10-22T09:40:58;12.83;;;2.60;;
27744;SDS011;61387;48.112;8.616;2022-10-22T09:43:25;5.10;;;2.33;;
27744;SDS011;61387;48.112;8.616;2022-10-22T09:45:58;3.27;;;2.37;;
27744;SDS011;61387;48.112;8.616;2022-10-22T09:48:29;2.17;;;1.77;;
27744;SDS011;61387;48.112;8.616;2022-10-22T09:51:09;4.37;;;1.87;;
27744;SDS011;61387;48.112;8.616;2022-10-22T09:53:41;3.70;;;1.90;;
27744;SDS011;61387;48.112;8.616;2022-10-22T09:56:24;5.10;;;1.73;;
27744;SDS011;61387;48.112;8.616;2022-10-22T09:58:51;5.90;;;1.77;;
27744;SDS011;61387;48.112;8.616;2022-10-22T10:01:24;2.13;;;1.40;;
27744;SDS011;61387;48.112;8.616;2022-10-22T10:03:52;5.13;;;1.73;;
27744;SDS011;61387;48.112;8.616;2022-10-22T10:06:18;4.63;;;1.60;;
27744;SDS011;61387;48.112;8.616;2022-10-22T10:08:46;4.63;;;1.67;;
27744;SDS011;61387;48.112;8.616;2022-10-22T10:14:12;5.87;;;2.20;;
27744;SDS011;61387;48.112;8.616;2022-10-22T10:17:07;4.50;;;2.00;;
27744;SDS011;61387;48.112;8.616;2022-10-22T10:25:38;3.33;;;1.60;;
27744;SDS011;61387;48.112;8.616;2022-10-22T10:30:47;6.43;;;2.20;;
27744;SDS011;61387;48.112;8.616;2022-10-22T10:39:11;4.03;;;1.42;;
27744;SDS011;61387;48.112;8.616;2022-10-22T10:41:55;2.80;;;1.52;;
27744;SDS011;61387;48.112;8.616;2022-10-22T10:44:49;4.03;;;1.27;;
27744;SDS011;61387;48.112;8.616;2022-10-22T10:49:50;3.50;;;1.40;;
27744;SDS011;61387;48.112;8.616;2022-10-22T10:52:21;3.87;;;1.63;;
27744;SDS011;61387;48.112;8.616;2022-10-22T10:55:12;3.80;;;1.30;;
27744;SDS011;61387;48.112;8.616;2022-10-22T10:58:02;4.57;;;1.60;;
27744;SDS011;61387;48.112;8.616;2022-10-22T11:00:47;2.87;;;1.33;;
27744;SDS011;61387;48.112;8.616;2022-10-22T11:03:31;5.67;;;1.50;;
27744;SDS011;61387;48.112;8.616;2022-10-22T11:06:14;5.13;;;1.50;;
27744;SDS011;61387;48.112;8.616;2022-10-22T11:08:42;8.73;;;2.20;;
27744;SDS011;61387;48.112;8.616;2022-10-22T11:11:21;2.13;;;0.80;;
27744;SDS011;61387;48.112;8.616;2022-10-22T11:14:08;2.90;;;0.83;;
27744;SDS011;61387;48.112;8.616;2022-10-22T11:16:52;2.70;;;1.20;;
27744;SDS011;61387;48.112;8.616;2022-10-22T11:19:31;4.20;;;1.65;;
27744;SDS011;61387;48.112;8.616;2022-10-22T11:22:20;4.23;;;1.10;;
27744;SDS011;61387;48.112;8.616;2022-10-22T11:25:05;3.73;;;1.30;;
27744;SDS011;61387;48.112;8.616;2022-10-22T11:27:51;4.47;;;1.60;;
27744;SDS011;61387;48.112;8.616;2022-10-22T11:30:21;3.97;;;1.03;;
27744;SDS011;61387;48.112;8.616;2022-10-22T11:32:53;3.80;;;1.30;;
27744;SDS011;61387;48.112;8.616;2022-10-22T11:35:29;3.30;;;1.23;;
27744;SDS011;61387;48.112;8.616;2022-10-22T11:37:58;2.13;;;1.17;;
27744;SDS011;61387;48.112;8.616;2022-10-22T11:40:36;4.10;;;1.23;;
27744;SDS011;61387;48.112;8.616;2022-10-22T11:43:11;4.73;;;1.23;;
27744;SDS011;61387;48.112;8.616;2022-10-22T11:48:45;4.37;;;1.37;;
27744;SDS011;61387;48.112;8.616;2022-10-22T11:51:37;4.17;;;1.00;;
27744;SDS011;61387;48.112;8.616;2022-10-22T12:04:53;2.83;;;0.98;;
27744;SDS011;61387;48.112;8.616;2022-10-22T12:07:52;3.22;;;1.00;;
27744;SDS011;61387;48.112;8.616;2022-10-22T12:10:21;4.70;;;1.12;;
27744;SDS011;61387;48.112;8.616;2022-10-22T12:12:51;3.70;;;0.90;;
27744;SDS011;61387;48.112;8.616;2022-10-22T12:15:25;3.33;;;1.20;;
27744;SDS011;61387;48.112;8.616;2022-10-22T12:17:59;5.05;;;1.40;;
27744;SDS011;61387;48.112;8.616;2022-10-22T12:20:26;2.35;;;0.93;;
27744;SDS011;61387;48.112;8.616;2022-10-22T12:22:52;3.80;;;1.60;;
27744;SDS011;61387;48.112;8.616;2022-10-22T12:25:23;3.65;;;1.25;;
27744;SDS011;61387;48.112;8.616;2022-10-22T12:27:54;3.12;;;0.77;;
27744;SDS011;61387;48.112;8.616;2022-10-22T12:30:22;3.25;;;0.77;;
27744;SDS011;61387;48.112;8.616;2022-10-22T12:32:54;4.30;;;1.77;;
27744;SDS011;61387;48.112;8.616;2022-10-22T12:35:23;3.30;;;1.00;;
27744;SDS011;61387;48.112;8.616;2022-10-22T12:37:51;2.05;;;0.95;;
27744;SDS011;61387;48.112;8.616;2022-10-22T12:40:54;4.68;;;1.27;;
27744;SDS011;61387;48.112;8.616;2022-10-22T12:43:18;2.10;;;1.07;;
27744;SDS011;61387;48.112;8.616;2022-10-22T12:45:48;3.05;;;1.20;;
27744;SDS011;61387;48.112;8.616;2022-10-22T12:48:19;5.13;;;1.40;;
27744;SDS011;61387;48.112;8.616;2022-10-22T12:50:48;4.00;;;1.50;;
27744;SDS011;61387;48.112;8.616;2022-10-22T12:53:21;4.75;;;1.60;;
27744;SDS011;61387;48.112;8.616;2022-10-22T12:55:51;5.10;;;1.20;;
27744;SDS011;61387;48.112;8.616;2022-10-22T12:58:24;3.00;;;1.03;;
27744;SDS011;61387;48.112;8.616;2022-10-22T13:00:53;5.37;;;1.17;;
27744;SDS011;61387;48.112;8.616;2022-10-22T13:05:51;3.90;;;1.03;;
27744;SDS011;61387;48.112;8.616;2022-10-22T13:08:19;2.77;;;1.23;;
27744;SDS011;61387;48.112;8.616;2022-10-22T13:10:48;4.62;;;1.05;;
27744;SDS011;61387;48.112;8.616;2022-10-22T13:13:28;1.95;;;0.80;;
27744;SDS011;61387;48.112;8.616;2022-10-22T13:16:14;3.90;;;1.10;;
27744;SDS011;61387;48.112;8.616;2022-10-22T13:18:51;3.83;;;0.93;;
27744;SDS011;61387;48.112;8.616;2022-10-22T13:21:22;4.10;;;0.80;;
27744;SDS011;61387;48.112;8.616;2022-10-22T13:23:57;2.90;;;1.00;;
27744;SDS011;61387;48.112;8.616;2022-10-22T13:26:29;2.23;;;1.10;;
27744;SDS011;61387;48.112;8.616;2022-10-22T13:28:59;3.42;;;1.35;;
27744;SDS011;61387;48.112;8.616;2022-10-22T13:31:30;2.30;;;0.52;;
27744;SDS011;61387;48.112;8.616;2022-10-22T13:33:58;2.92;;;0.80;;
27744;SDS011;61387;48.112;8.616;2022-10-22T13:36:27;3.95;;;0.82;;
27744;SDS011;61387;48.112;8.616;2022-10-22T13:38:53;3.50;;;0.90;;
27744;SDS011;61387;48.112;8.616;2022-10-22T13:41:26;1.53;;;0.80;;
27744;SDS011;61387;48.112;8.616;2022-10-22T13:43:54;1.73;;;0.62;;
27744;SDS011;61387;48.112;8.616;2022-10-22T13:46:20;2.90;;;0.73;;
27744;SDS011;61387;48.112;8.616;2022-10-22T13:48:47;4.85;;;1.10;;
27744;SDS011;61387;48.112;8.616;2022-10-22T13:51:17;2.78;;;0.65;;
27744;SDS011;61387;48.112;8.616;2022-10-22T13:53:49;4.80;;;1.20;;
27744;SDS011;61387;48.112;8.616;2022-10-22T13:56:17;1.92;;;0.70;;
27744;SDS011;61387;48.112;8.616;2022-10-22T13:58:44;3.70;;;0.70;;
27744;SDS011;61387;48.112;8.616;2022-10-22T14:01:15;2.67;;;1.02;;
27744;SDS011;61387;48.112;8.616;2022-10-22T14:03:45;2.93;;;0.60;;
27744;SDS011;61387;48.112;8.616;2022-10-22T14:06:12;4.12;;;0.80;;
27744;SDS011;61387;48.112;8.616;2022-10-22T14:08:40;2.62;;;0.68;;
27744;SDS011;61387;48.112;8.616;2022-10-22T14:11:08;6.03;;;1.25;;
27744;SDS011;61387;48.112;8.616;2022-10-22T14:13:35;2.62;;;0.82;;
27744;SDS011;61387;48.112;8.616;2022-10-22T14:16:01;3.57;;;0.80;;
27744;SDS011;61387;48.112;8.616;2022-10-22T14:18:29;6.68;;;2.15;;
27744;SDS011;61387;48.112;8.616;2022-10-22T14:20:57;4.55;;;1.20;;
27744;SDS011;61387;48.112;8.616;2022-10-22T14:23:28;5.30;;;0.88;;
27744;SDS011;61387;48.112;8.616;2022-10-22T14:25:55;3.92;;;0.57;;
27744;SDS011;61387;48.112;8.616;2022-10-22T14:28:21;3.65;;;0.90;;
27744;SDS011;61387;48.112;8.616;2022-10-22T14:30:47;7.70;;;1.37;;
27744;SDS011;61387;48.112;8.616;2022-10-22T14:33:14;5.40;;;1.20;;
27744;SDS011;61387;48.112;8.616;2022-10-22T14:35:41;2.35;;;0.68;;
27744;SDS011;61387;48.112;8.616;2022-10-22T14:38:07;4.70;;;1.02;;
27744;SDS011;61387;48.112;8.616;2022-10-22T14:40:33;4.37;;;1.00;;
27744;SDS011;61387;48.112;8.616;2022-10-22T14:42:59;4.07;;;1.67;;
27744;SDS011;61387;48.112;8.616;2022-10-22T14:45:34;7.10;;;1.30;;
27744;SDS011;61387;48.112;8.616;2022-10-22T14:48:00;7.57;;;1.05;;
27744;SDS011;61387;48.112;8.616;2022-10-22T14:50:26;8.37;;;1.03;;
27744;SDS011;61387;48.112;8.616;2022-10-22T14:52:52;6.30;;;1.07;;
27744;SDS011;61387;48.112;8.616;2022-10-22T14:55:18;3.03;;;1.30;;
27744;SDS011;61387;48.112;8.616;2022-10-22T14:57:44;3.28;;;1.20;;
27744;SDS011;61387;48.112;8.616;2022-10-22T15:00:17;5.12;;;1.20;;
27744;SDS011;61387;48.112;8.616;2022-10-22T15:02:43;3.12;;;0.90;;
27744;SDS011;61387;48.112;8.616;2022-10-22T15:05:09;3.85;;;0.70;;
27744;SDS011;61387;48.112;8.616;2022-10-22T15:07:35;3.55;;;1.12;;
27744;SDS011;61387;48.112;8.616;2022-10-22T15:10:02;3.08;;;0.70;;
27744;SDS011;61387;48.112;8.616;2022-10-22T15:12:28;2.58;;;1.27;;
27744;SDS011;61387;48.112;8.616;2022-10-22T15:14:54;3.50;;;1.03;;
27744;SDS011;61387;48.112;8.616;2022-10-22T15:17:19;7.70;;;1.98;;
27744;SDS011;61387;48.112;8.616;2022-10-22T15:19:45;6.25;;;1.50;;
27744;SDS011;61387;48.112;8.616;2022-10-22T15:22:12;4.67;;;1.10;;
27744;SDS011;61387;48.112;8.616;2022-10-22T15:24:38;7.47;;;1.12;;
27744;SDS011;61387;48.112;8.616;2022-10-22T15:27:04;3.40;;;1.00;;
27744;SDS011;61387;48.112;8.616;2022-10-22T15:29:30;9.45;;;1.37;;
27744;SDS011;61387;48.112;8.616;2022-10-22T15:31:56;4.43;;;0.90;;
27744;SDS011;61387;48.112;8.616;2022-10-22T15:34:25;4.23;;;1.30;;
27744;SDS011;61387;48.112;8.616;2022-10-22T15:36:53;4.47;;;1.35;;
27744;SDS011;61387;48.112;8.616;2022-10-22T15:39:20;6.63;;;1.10;;
27744;SDS011;61387;48.112;8.616;2022-10-22T15:41:47;4.20;;;1.03;;
27744;SDS011;61387;48.112;8.616;2022-10-22T15:44:14;4.80;;;1.30;;
27744;SDS011;61387;48.112;8.616;2022-10-22T15:46:40;5.63;;;1.53;;
27744;SDS011;61387;48.112;8.616;2022-10-22T15:49:06;8.13;;;1.30;;
27744;SDS011;61387;48.112;8.616;2022-10-22T15:51:32;4.23;;;1.23;;
27744;SDS011;61387;48.112;8.616;2022-10-22T15:53:58;7.00;;;1.30;;
27744;SDS011;61387;48.112;8.616;2022-10-22T15:56:25;7.77;;;1.33;;
27744;SDS011;61387;48.112;8.616;2022-10-22T15:58:56;4.23;;;1.00;;
27744;SDS011;61387;48.112;8.616;2022-10-22T16:01:24;4.27;;;1.10;;
27744;SDS011;61387;48.112;8.616;2022-10-22T16:03:51;8.37;;;1.40;;